sensor_id;sensor_type;location;lat;lon;timestamp;pressure;altitude;pressure_sealevel;temperature;humidity
70338;BME280;57757;53.198;19.646;2023-05-15T00:01:25;99977.58;;;15.59;32.09
70338;BME280;57757;53.198;19.646;2023-05-15T00:03:53;99970.81;;;15.57;32.18
70338;BME280;57757;53.198;19.646;2023-05-15T00:06:21;99970.34;;;15.56;32.28
70338;BME280;57757;53.198;19.646;2023-05-15T00:08:49;99967.70;;;15.56;32.23
70338;BME280;57757;53.198;19.646;2023-05-15T00:11:17;99967.49;;;15.56;32.25
70338;BME280;57757;53.198;19.646;2023-05-15T00:13:44;99963.11;;;15.57;32.42
70338;BME280;57757;53.198;19.646;2023-05-15T00:16:12;99963.48;;;15.56;32.43
70338;BME280;57757;53.198;19.646;2023-05-15T00:18:40;99953.94;;;15.54;32.52
70338;BME280;57757;53.198;19.646;2023-05-15T00:21:08;99954.48;;;15.54;32.36
70338;BME280;57757;53.198;19.646;2023-05-15T00:23:35;99952.02;;;15.54;32.32
70338;BME280;57757;53.198;19.646;2023-05-15T00:26:03;99950.92;;;15.55;32.54
70338;BME280;57757;53.198;19.646;2023-05-15T00:28:30;99950.40;;;15.55;32.41
70338;BME280;57757;53.198;19.646;2023-05-15T00:30:58;99946.55;;;15.55;32.48
70338;BME280;57757;53.198;19.646;2023-05-15T00:33:25;99944.14;;;15.54;32.62
70338;BME280;57757;53.198;19.646;2023-05-15T00:35:53;99945.36;;;15.54;32.59
70338;BME280;57757;53.198;19.646;2023-05-15T00:38:20;99938.52;;;15.54;32.60
70338;BME280;57757;53.198;19.646;2023-05-15T00:40:48;99938.19;;;15.54;32.66
70338;BME280;57757;53.198;19.646;2023-05-15T00:43:16;99938.18;;;15.54;32.67
70338;BME280;57757;53.198;19.646;2023-05-15T00:45:45;99934.50;;;15.54;32.61
70338;BME280;57757;53.198;19.646;2023-05-15T00:48:12;99934.70;;;15.53;32.55
70338;BME280;57757;53.198;19.646;2023-05-15T00:50:40;99931.39;;;15.53;32.63
70338;BME280;57757;53.198;19.646;2023-05-15T00:53:09;99935.46;;;15.52;32.66
70338;BME280;57757;53.198;19.646;2023-05-15T00:55:38;99931.45;;;15.52;32.85
70338;BME280;57757;53.198;19.646;2023-05-15T00:58:09;99928.26;;;15.53;32.90
70338;BME280;57757;53.198;19.646;2023-05-15T01:00:42;99924.53;;;15.54;32.83
70338;BME280;57757;53.198;19.646;2023-05-15T01:03:10;99922.06;;;15.54;32.81
70338;BME280;57757;53.198;19.646;2023-05-15T01:05:38;99917.33;;;15.54;32.95
70338;BME280;57757;53.198;19.646;2023-05-15T01:08:17;99919.86;;;15.53;32.93
70338;BME280;57757;53.198;19.646;2023-05-15T01:10:47;99919.35;;;15.52;33.04
70338;BME280;57757;53.198;19.646;2023-05-15T01:13:19;99917.09;;;15.52;33.11
70338;BME280;57757;53.198;19.646;2023-05-15T01:15:48;99913.79;;;15.51;33.05
70338;BME280;57757;53.198;19.646;2023-05-15T01:18:18;99910.70;;;15.49;33.11
70338;BME280;57757;53.198;19.646;2023-05-15T01:23:43;99896.96;;;15.47;33.32
70338;BME280;57757;53.198;19.646;2023-05-15T01:31:57;99891.56;;;15.46;33.50
70338;BME280;57757;53.198;19.646;2023-05-15T01:37:21;99884.77;;;15.45;33.53
70338;BME280;57757;53.198;19.646;2023-05-15T01:39:59;99882.48;;;15.46;33.54
70338;BME280;57757;53.198;19.646;2023-05-15T01:42:30;99880.42;;;15.45;33.67
70338;BME280;57757;53.198;19.646;2023-05-15T01:45:02;99881.00;;;15.44;33.54
70338;BME280;57757;53.198;19.646;2023-05-15T01:47:38;99874.42;;;15.42;33.69
70338;BME280;57757;53.198;19.646;2023-05-15T01:50:12;99869.25;;;15.41;33.66
70338;BME280;57757;53.198;19.646;2023-05-15T01:52:45;99865.52;;;15.41;33.67
70338;BME280;57757;53.198;19.646;2023-05-15T01:55:13;99856.15;;;15.40;33.74
70338;BME280;57757;53.198;19.646;2023-05-15T01:57:44;99853.94;;;15.38;33.73
70338;BME280;57757;53.198;19.646;2023-05-15T02:00:14;99850.04;;;15.35;33.90
70338;BME280;57757;53.198;19.646;2023-05-15T02:02:45;99850.65;;;15.33;33.92
70338;BME280;57757;53.198;19.646;2023-05-15T02:05:13;99846.52;;;15.32;34.00
70338;BME280;57757;53.198;19.646;2023-05-15T02:07:42;99843.21;;;15.32;34.11
70338;BME280;57757;53.198;19.646;2023-05-15T02:10:11;99846.55;;;15.31;34.08
70338;BME280;57757;53.198;19.646;2023-05-15T02:12:41;99846.81;;;15.30;34.08
70338;BME280;57757;53.198;19.646;2023-05-15T02:15:09;99837.98;;;15.27;34.20
70338;BME280;57757;53.198;19.646;2023-05-15T02:17:37;99834.30;;;15.28;34.23
70338;BME280;57757;53.198;19.646;2023-05-15T02:20:06;99835.23;;;15.26;34.29
70338;BME280;57757;53.198;19.646;2023-05-15T02:22:35;99834.92;;;15.25;34.31
70338;BME280;57757;53.198;19.646;2023-05-15T02:25:03;99828.28;;;15.25;34.37
70338;BME280;57757;53.198;19.646;2023-05-15T02:27:42;99821.27;;;15.25;34.43
70338;BME280;57757;53.198;19.646;2023-05-15T02:33:11;99817.05;;;15.25;34.57
70338;BME280;57757;53.198;19.646;2023-05-15T02:38:18;99809.70;;;15.25;34.58
70338;BME280;57757;53.198;19.646;2023-05-15T02:40:50;99811.07;;;15.26;34.73
70338;BME280;57757;53.198;19.646;2023-05-15T02:43:20;99801.16;;;15.25;34.64
70338;BME280;57757;53.198;19.646;2023-05-15T02:45:50;99797.45;;;15.25;34.68
70338;BME280;57757;53.198;19.646;2023-05-15T02:48:20;99794.34;;;15.24;34.78
70338;BME280;57757;53.198;19.646;2023-05-15T02:50:50;99790.15;;;15.24;34.79
70338;BME280;57757;53.198;19.646;2023-05-15T02:53:18;99782.63;;;15.24;34.78
70338;BME280;57757;53.198;19.646;2023-05-15T02:55:46;99775.88;;;15.22;34.74
70338;BME280;57757;53.198;19.646;2023-05-15T02:58:16;99770.00;;;15.21;34.94
70338;BME280;57757;53.198;19.646;2023-05-15T03:00:44;99766.50;;;15.21;34.97
70338;BME280;57757;53.198;19.646;2023-05-15T03:03:12;99764.56;;;15.21;34.99
70338;BME280;57757;53.198;19.646;2023-05-15T03:05:39;99761.41;;;15.21;35.12
70338;BME280;57757;53.198;19.646;2023-05-15T03:08:07;99757.88;;;15.22;34.99
70338;BME280;57757;53.198;19.646;2023-05-15T03:10:34;99759.50;;;15.21;35.11
70338;BME280;57757;53.198;19.646;2023-05-15T03:13:02;99756.20;;;15.20;35.17
70338;BME280;57757;53.198;19.646;2023-05-15T03:15:29;99748.83;;;15.20;35.17
70338;BME280;57757;53.198;19.646;2023-05-15T03:17:57;99747.16;;;15.19;35.20
70338;BME280;57757;53.198;19.646;2023-05-15T03:20:24;99747.92;;;15.17;35.36
70338;BME280;57757;53.198;19.646;2023-05-15T03:22:52;99753.38;;;15.17;35.33
70338;BME280;57757;53.198;19.646;2023-05-15T03:25:21;99755.63;;;15.17;35.41
70338;BME280;57757;53.198;19.646;2023-05-15T03:27:49;99750.23;;;15.17;35.39
70338;BME280;57757;53.198;19.646;2023-05-15T03:30:17;99738.48;;;15.17;35.40
70338;BME280;57757;53.198;19.646;2023-05-15T03:32:44;99735.55;;;15.16;35.61
70338;BME280;57757;53.198;19.646;2023-05-15T03:35:13;99736.79;;;15.16;35.50
70338;BME280;57757;53.198;19.646;2023-05-15T03:37:41;99737.13;;;15.16;35.49
70338;BME280;57757;53.198;19.646;2023-05-15T03:40:09;99737.23;;;15.17;35.64
70338;BME280;57757;53.198;19.646;2023-05-15T03:42:36;99736.48;;;15.18;35.75
70338;BME280;57757;53.198;19.646;2023-05-15T03:45:04;99726.48;;;15.19;35.81
70338;BME280;57757;53.198;19.646;2023-05-15T03:47:32;99720.64;;;15.20;35.80
70338;BME280;57757;53.198;19.646;2023-05-15T03:50:00;99722.09;;;15.19;35.78
70338;BME280;57757;53.198;19.646;2023-05-15T03:52:27;99725.98;;;15.18;35.88
70338;BME280;57757;53.198;19.646;2023-05-15T03:54:55;99729.41;;;15.20;35.87
70338;BME280;57757;53.198;19.646;2023-05-15T03:57:22;99724.47;;;15.21;35.90
70338;BME280;57757;53.198;19.646;2023-05-15T03:59:50;99727.15;;;15.23;35.96
70338;BME280;57757;53.198;19.646;2023-05-15T04:02:17;99727.25;;;15.24;36.10
70338;BME280;57757;53.198;19.646;2023-05-15T04:04:45;99722.63;;;15.25;36.06
70338;BME280;57757;53.198;19.646;2023-05-15T04:07:12;99717.33;;;15.26;36.11
70338;BME280;57757;53.198;19.646;2023-05-15T04:09:40;99712.92;;;15.27;36.12
70338;BME280;57757;53.198;19.646;2023-05-15T04:12:07;99711.02;;;15.26;36.04
70338;BME280;57757;53.198;19.646;2023-05-15T04:14:35;99707.82;;;15.27;36.21
70338;BME280;57757;53.198;19.646;2023-05-15T04:17:03;99706.73;;;15.28;36.26
70338;BME280;57757;53.198;19.646;2023-05-15T04:19:30;99709.38;;;15.28;36.25
70338;BME280;57757;53.198;19.646;2023-05-15T04:21:58;99715.44;;;15.29;36.41
70338;BME280;57757;53.198;19.646;2023-05-15T04:24:25;99715.36;;;15.31;36.40
70338;BME280;57757;53.198;19.646;2023-05-15T04:26:53;99718.34;;;15.31;36.37
70338;BME280;57757;53.198;19.646;2023-05-15T04:29:21;99716.76;;;15.35;36.48
70338;BME280;57757;53.198;19.646;2023-05-15T04:31:49;99716.48;;;15.37;36.43
70338;BME280;57757;53.198;19.646;2023-05-15T04:34:17;99712.15;;;15.39;36.46
70338;BME280;57757;53.198;19.646;2023-05-15T04:36:45;99705.57;;;15.41;36.61
70338;BME280;57757;53.198;19.646;2023-05-15T04:39:12;99693.41;;;15.42;36.54
70338;BME280;57757;53.198;19.646;2023-05-15T04:41:40;99688.45;;;15.44;36.62
70338;BME280;57757;53.198;19.646;2023-05-15T04:44:08;99684.99;;;15.46;36.74
70338;BME280;57757;53.198;19.646;2023-05-15T04:46:35;99678.78;;;15.48;36.84
70338;BME280;57757;53.198;19.646;2023-05-15T04:49:04;99674.83;;;15.50;36.82
70338;BME280;57757;53.198;19.646;2023-05-15T04:51:33;99668.53;;;15.49;36.89
70338;BME280;57757;53.198;19.646;2023-05-15T04:54:00;99665.71;;;15.50;36.82
70338;BME280;57757;53.198;19.646;2023-05-15T04:56:28;99657.25;;;15.51;36.85
70338;BME280;57757;53.198;19.646;2023-05-15T04:58:55;99657.23;;;15.51;36.81
70338;BME280;57757;53.198;19.646;2023-05-15T05:01:24;99658.55;;;15.53;36.99
70338;BME280;57757;53.198;19.646;2023-05-15T05:03:51;99655.63;;;15.55;36.87
70338;BME280;57757;53.198;19.646;2023-05-15T05:06:19;99656.94;;;15.57;37.05
70338;BME280;57757;53.198;19.646;2023-05-15T05:08:48;99658.45;;;15.61;37.26
70338;BME280;57757;53.198;19.646;2023-05-15T05:11:15;99661.47;;;15.67;37.16
70338;BME280;57757;53.198;19.646;2023-05-15T05:13:43;99661.98;;;15.70;37.21
70338;BME280;57757;53.198;19.646;2023-05-15T05:16:11;99664.27;;;15.74;37.10
70338;BME280;57757;53.198;19.646;2023-05-15T05:18:38;99663.02;;;15.78;37.22
70338;BME280;57757;53.198;19.646;2023-05-15T05:21:06;99665.45;;;15.82;37.34
70338;BME280;57757;53.198;19.646;2023-05-15T05:23:33;99669.30;;;15.85;37.21
70338;BME280;57757;53.198;19.646;2023-05-15T05:26:01;99671.80;;;15.88;37.42
70338;BME280;57757;53.198;19.646;2023-05-15T05:28:34;99678.45;;;15.91;37.28
70338;BME280;57757;53.198;19.646;2023-05-15T05:31:02;99689.80;;;15.95;37.31
70338;BME280;57757;53.198;19.646;2023-05-15T05:33:32;99690.92;;;15.97;37.25
70338;BME280;57757;53.198;19.646;2023-05-15T05:36:01;99690.10;;;15.99;37.43
70338;BME280;57757;53.198;19.646;2023-05-15T05:38:28;99686.83;;;16.01;37.48
70338;BME280;57757;53.198;19.646;2023-05-15T05:40:58;99691.02;;;16.05;37.32
70338;BME280;57757;53.198;19.646;2023-05-15T05:43:27;99689.28;;;16.08;37.40
70338;BME280;57757;53.198;19.646;2023-05-15T05:45:55;99687.42;;;16.10;37.58
70338;BME280;57757;53.198;19.646;2023-05-15T05:48:24;99698.38;;;16.11;37.40
70338;BME280;57757;53.198;19.646;2023-05-15T05:50:53;99690.72;;;16.14;37.58
70338;BME280;57757;53.198;19.646;2023-05-15T05:53:26;99675.34;;;16.16;37.57
70338;BME280;57757;53.198;19.646;2023-05-15T05:55:54;99675.77;;;16.18;37.59
70338;BME280;57757;53.198;19.646;2023-05-15T05:58:22;99667.42;;;16.19;37.63
70338;BME280;57757;53.198;19.646;2023-05-15T06:00:56;99668.73;;;16.21;37.79
70338;BME280;57757;53.198;19.646;2023-05-15T06:03:26;99665.98;;;16.23;37.64
70338;BME280;57757;53.198;19.646;2023-05-15T06:05:54;99667.62;;;16.25;37.78
70338;BME280;57757;53.198;19.646;2023-05-15T06:08:24;99659.66;;;16.26;37.90
70338;BME280;57757;53.198;19.646;2023-05-15T06:10:52;99657.36;;;16.27;37.76
70338;BME280;57757;53.198;19.646;2023-05-15T06:13:20;99655.49;;;16.26;37.90
70338;BME280;57757;53.198;19.646;2023-05-15T06:15:50;99656.42;;;16.25;37.92
70338;BME280;57757;53.198;19.646;2023-05-15T06:18:17;99657.95;;;16.25;37.98
70338;BME280;57757;53.198;19.646;2023-05-15T06:20:45;99648.42;;;16.27;38.04
70338;BME280;57757;53.198;19.646;2023-05-15T06:23:13;99645.02;;;16.25;38.21
70338;BME280;57757;53.198;19.646;2023-05-15T06:25:41;99653.50;;;16.27;38.29
70338;BME280;57757;53.198;19.646;2023-05-15T06:28:08;99664.67;;;16.28;38.40
70338;BME280;57757;53.198;19.646;2023-05-15T06:30:36;99672.26;;;16.27;38.42
70338;BME280;57757;53.198;19.646;2023-05-15T06:33:03;99675.75;;;16.28;38.72
70338;BME280;57757;53.198;19.646;2023-05-15T06:35:31;99662.29;;;16.27;38.78
70338;BME280;57757;53.198;19.646;2023-05-15T06:37:59;99656.83;;;16.30;39.05
70338;BME280;57757;53.198;19.646;2023-05-15T06:40:27;99662.23;;;16.34;39.18
70338;BME280;57757;53.198;19.646;2023-05-15T06:42:56;99660.69;;;16.36;39.00
70338;BME280;57757;53.198;19.646;2023-05-15T06:45:25;99657.52;;;16.37;39.17
70338;BME280;57757;53.198;19.646;2023-05-15T06:47:54;99660.06;;;16.38;39.40
70338;BME280;57757;53.198;19.646;2023-05-15T06:50:22;99656.14;;;16.39;39.44
70338;BME280;57757;53.198;19.646;2023-05-15T06:52:49;99650.80;;;16.38;39.51
70338;BME280;57757;53.198;19.646;2023-05-15T06:55:18;99653.02;;;16.39;39.72
70338;BME280;57757;53.198;19.646;2023-05-15T06:57:46;99652.90;;;16.41;39.77
70338;BME280;57757;53.198;19.646;2023-05-15T07:00:14;99651.50;;;16.41;39.89
70338;BME280;57757;53.198;19.646;2023-05-15T07:02:42;99647.35;;;16.40;40.13
70338;BME280;57757;53.198;19.646;2023-05-15T07:05:10;99634.89;;;16.37;40.38
70338;BME280;57757;53.198;19.646;2023-05-15T07:07:38;99629.69;;;16.33;40.41
70338;BME280;57757;53.198;19.646;2023-05-15T07:10:06;99622.13;;;16.27;40.59
70338;BME280;57757;53.198;19.646;2023-05-15T07:12:34;99628.67;;;16.22;40.83
70338;BME280;57757;53.198;19.646;2023-05-15T07:15:08;99628.85;;;16.16;40.85
70338;BME280;57757;53.198;19.646;2023-05-15T07:17:39;99629.89;;;16.10;41.28
70338;BME280;57757;53.198;19.646;2023-05-15T07:20:07;99629.89;;;16.07;41.52
70338;BME280;57757;53.198;19.646;2023-05-15T07:22:35;99622.02;;;16.00;41.67
70338;BME280;57757;53.198;19.646;2023-05-15T07:25:15;99607.52;;;15.96;42.01
70338;BME280;57757;53.198;19.646;2023-05-15T07:27:43;99596.45;;;15.90;42.17
70338;BME280;57757;53.198;19.646;2023-05-15T07:30:11;99591.64;;;15.81;42.22
70338;BME280;57757;53.198;19.646;2023-05-15T07:32:39;99584.59;;;15.72;42.32
70338;BME280;57757;53.198;19.646;2023-05-15T07:35:08;99573.80;;;15.64;42.47
70338;BME280;57757;53.198;19.646;2023-05-15T07:37:37;99569.56;;;15.58;42.60
70338;BME280;57757;53.198;19.646;2023-05-15T07:40:06;99558.14;;;15.53;42.90
70338;BME280;57757;53.198;19.646;2023-05-15T07:42:34;99551.42;;;15.47;42.96
70338;BME280;57757;53.198;19.646;2023-05-15T07:45:02;99557.52;;;15.41;43.17
70338;BME280;57757;53.198;19.646;2023-05-15T07:47:29;99561.40;;;15.34;43.44
70338;BME280;57757;53.198;19.646;2023-05-15T07:49:57;99570.30;;;15.28;43.81
70338;BME280;57757;53.198;19.646;2023-05-15T07:52:25;99573.27;;;15.24;44.03
70338;BME280;57757;53.198;19.646;2023-05-15T07:54:53;99578.05;;;15.17;43.98
70338;BME280;57757;53.198;19.646;2023-05-15T07:57:24;99578.70;;;15.11;44.08
70338;BME280;57757;53.198;19.646;2023-05-15T07:59:53;99581.37;;;15.07;44.33
70338;BME280;57757;53.198;19.646;2023-05-15T08:02:20;99582.64;;;15.03;44.42
70338;BME280;57757;53.198;19.646;2023-05-15T08:04:48;99587.73;;;14.99;44.66
70338;BME280;57757;53.198;19.646;2023-05-15T08:07:15;99583.52;;;14.96;44.96
70338;BME280;57757;53.198;19.646;2023-05-15T08:09:43;99585.19;;;14.91;44.89
70338;BME280;57757;53.198;19.646;2023-05-15T08:12:19;99581.82;;;14.85;44.94
70338;BME280;57757;53.198;19.646;2023-05-15T08:14:51;99579.55;;;14.77;45.32
70338;BME280;57757;53.198;19.646;2023-05-15T08:17:20;99573.82;;;14.69;45.34
70338;BME280;57757;53.198;19.646;2023-05-15T08:19:48;99568.66;;;14.64;45.47
70338;BME280;57757;53.198;19.646;2023-05-15T08:22:16;99564.73;;;14.59;45.68
70338;BME280;57757;53.198;19.646;2023-05-15T08:24:44;99554.79;;;14.55;45.79
70338;BME280;57757;53.198;19.646;2023-05-15T08:27:12;99550.93;;;14.51;45.98
70338;BME280;57757;53.198;19.646;2023-05-15T08:29:40;99556.36;;;14.48;46.14
70338;BME280;57757;53.198;19.646;2023-05-15T08:32:08;99549.77;;;14.46;46.24
70338;BME280;57757;53.198;19.646;2023-05-15T08:34:36;99545.32;;;14.45;46.28
70338;BME280;57757;53.198;19.646;2023-05-15T08:37:05;99541.25;;;14.39;46.40
70338;BME280;57757;53.198;19.646;2023-05-15T08:39:33;99542.83;;;14.38;46.61
70338;BME280;57757;53.198;19.646;2023-05-15T08:44:44;99531.59;;;14.40;47.11
70338;BME280;57757;53.198;19.646;2023-05-15T08:47:13;99521.33;;;14.42;47.02
70338;BME280;57757;53.198;19.646;2023-05-15T08:52:32;99520.34;;;14.44;47.21
70338;BME280;57757;53.198;19.646;2023-05-15T08:55:01;99514.69;;;14.45;47.39
70338;BME280;57757;53.198;19.646;2023-05-15T08:57:29;99510.91;;;14.48;47.50
70338;BME280;57757;53.198;19.646;2023-05-15T08:59:59;99511.22;;;14.48;47.41
70338;BME280;57757;53.198;19.646;2023-05-15T09:02:27;99505.89;;;14.46;47.45
70338;BME280;57757;53.198;19.646;2023-05-15T09:04:55;99494.85;;;14.47;47.77
70338;BME280;57757;53.198;19.646;2023-05-15T09:07:23;99490.15;;;14.53;47.81
70338;BME280;57757;53.198;19.646;2023-05-15T09:09:52;99478.04;;;14.57;47.92
70338;BME280;57757;53.198;19.646;2023-05-15T09:12:23;99488.70;;;14.61;47.88
70338;BME280;57757;53.198;19.646;2023-05-15T09:15:10;99487.50;;;14.64;48.04
70338;BME280;57757;53.198;19.646;2023-05-15T09:17:39;99479.72;;;14.62;48.10
70338;BME280;57757;53.198;19.646;2023-05-15T09:20:24;99478.34;;;14.62;48.15
70338;BME280;57757;53.198;19.646;2023-05-15T09:22:52;99473.15;;;14.60;48.35
70338;BME280;57757;53.198;19.646;2023-05-15T09:25:36;99477.06;;;14.62;48.40
70338;BME280;57757;53.198;19.646;2023-05-15T09:28:23;99473.10;;;14.65;48.44
70338;BME280;57757;53.198;19.646;2023-05-15T09:30:56;99480.15;;;14.60;48.47
70338;BME280;57757;53.198;19.646;2023-05-15T09:33:33;99489.95;;;14.57;48.57
70338;BME280;57757;53.198;19.646;2023-05-15T09:36:03;99486.33;;;14.52;48.62
70338;BME280;57757;53.198;19.646;2023-05-15T09:38:32;99477.83;;;14.48;48.82
70338;BME280;57757;53.198;19.646;2023-05-15T09:41:02;99472.61;;;14.51;49.10
70338;BME280;57757;53.198;19.646;2023-05-15T09:43:36;99474.30;;;14.52;49.03
70338;BME280;57757;53.198;19.646;2023-05-15T09:46:05;99467.48;;;14.52;49.13
70338;BME280;57757;53.198;19.646;2023-05-15T09:48:34;99464.76;;;14.50;49.22
70338;BME280;57757;53.198;19.646;2023-05-15T09:51:04;99460.21;;;14.50;49.28
70338;BME280;57757;53.198;19.646;2023-05-15T09:53:34;99455.36;;;14.52;49.35
70338;BME280;57757;53.198;19.646;2023-05-15T09:56:02;99453.45;;;14.55;49.53
70338;BME280;57757;53.198;19.646;2023-05-15T09:58:30;99455.02;;;14.59;49.61
70338;BME280;57757;53.198;19.646;2023-05-15T10:00:58;99450.17;;;14.61;49.58
70338;BME280;57757;53.198;19.646;2023-05-15T10:03:27;99452.11;;;14.65;49.65
70338;BME280;57757;53.198;19.646;2023-05-15T10:05:59;99451.20;;;14.68;49.75
70338;BME280;57757;53.198;19.646;2023-05-15T10:08:28;99448.36;;;14.72;49.75
70338;BME280;57757;53.198;19.646;2023-05-15T10:10:58;99447.05;;;14.78;49.88
70338;BME280;57757;53.198;19.646;2023-05-15T10:13:30;99441.60;;;14.81;49.97
70338;BME280;57757;53.198;19.646;2023-05-15T10:16:03;99438.79;;;14.85;49.95
70338;BME280;57757;53.198;19.646;2023-05-15T10:18:32;99439.98;;;14.89;49.94
70338;BME280;57757;53.198;19.646;2023-05-15T10:21:02;99432.09;;;14.96;50.19
70338;BME280;57757;53.198;19.646;2023-05-15T10:23:34;99425.73;;;15.03;50.04
70338;BME280;57757;53.198;19.646;2023-05-15T10:26:10;99425.82;;;15.08;50.15
70338;BME280;57757;53.198;19.646;2023-05-15T10:28:42;99427.11;;;15.13;50.09
70338;BME280;57757;53.198;19.646;2023-05-15T10:31:12;99425.95;;;15.15;50.15
70338;BME280;57757;53.198;19.646;2023-05-15T10:33:41;99418.22;;;15.12;50.27
70338;BME280;57757;53.198;19.646;2023-05-15T10:36:10;99417.39;;;15.31;50.94
70338;BME280;57757;53.198;19.646;2023-05-15T10:38:38;99410.59;;;15.43;50.39
70338;BME280;57757;53.198;19.646;2023-05-15T10:41:07;99410.94;;;15.34;50.38
70338;BME280;57757;53.198;19.646;2023-05-15T10:43:44;99412.95;;;15.57;50.81
70338;BME280;57757;53.198;19.646;2023-05-15T10:46:13;99404.47;;;15.87;50.82
70338;BME280;57757;53.198;19.646;2023-05-15T10:48:42;99405.95;;;16.03;50.10
70338;BME280;57757;53.198;19.646;2023-05-15T10:51:17;99404.87;;;16.04;49.76
70338;BME280;57757;53.198;19.646;2023-05-15T10:53:45;99397.90;;;15.97;49.79
70338;BME280;57757;53.198;19.646;2023-05-15T10:56:14;99401.33;;;15.92;49.82
70338;BME280;57757;53.198;19.646;2023-05-15T10:58:49;99398.83;;;15.90;49.96
70338;BME280;57757;53.198;19.646;2023-05-15T11:01:38;99396.29;;;15.86;49.97
70338;BME280;57757;53.198;19.646;2023-05-15T11:04:17;99390.85;;;15.76;49.81
70338;BME280;57757;53.198;19.646;2023-05-15T11:06:48;99387.73;;;15.66;50.06
70338;BME280;57757;53.198;19.646;2023-05-15T11:09:32;99385.20;;;15.56;50.06
70338;BME280;57757;53.198;19.646;2023-05-15T11:12:05;99387.13;;;15.46;50.15
70338;BME280;57757;53.198;19.646;2023-05-15T11:14:39;99381.40;;;15.42;50.32
70338;BME280;57757;53.198;19.646;2023-05-15T11:17:12;99377.95;;;15.38;50.33
70338;BME280;57757;53.198;19.646;2023-05-15T11:22:27;99382.88;;;15.21;50.43
70338;BME280;57757;53.198;19.646;2023-05-15T11:25:09;99384.41;;;15.16;50.50
70338;BME280;57757;53.198;19.646;2023-05-15T11:27:44;99378.05;;;15.14;50.75
70338;BME280;57757;53.198;19.646;2023-05-15T11:33:19;99357.90;;;15.14;51.16
70338;BME280;57757;53.198;19.646;2023-05-15T11:35:47;99354.80;;;15.16;51.11
70338;BME280;57757;53.198;19.646;2023-05-15T11:38:16;99351.41;;;15.17;51.06
70338;BME280;57757;53.198;19.646;2023-05-15T11:40:54;99349.31;;;15.27;51.34
70338;BME280;57757;53.198;19.646;2023-05-15T11:45:52;99341.59;;;15.52;51.34
70338;BME280;57757;53.198;19.646;2023-05-15T11:48:29;99341.45;;;15.54;51.27
70338;BME280;57757;53.198;19.646;2023-05-15T11:51:00;99345.37;;;15.53;51.32
70338;BME280;57757;53.198;19.646;2023-05-15T11:53:29;99346.61;;;15.53;51.23
70338;BME280;57757;53.198;19.646;2023-05-15T11:55:57;99342.52;;;15.51;51.28
70338;BME280;57757;53.198;19.646;2023-05-15T11:58:25;99334.16;;;15.50;51.37
70338;BME280;57757;53.198;19.646;2023-05-15T12:00:53;99328.73;;;15.50;51.48
70338;BME280;57757;53.198;19.646;2023-05-15T12:03:26;99332.15;;;15.52;51.53
70338;BME280;57757;53.198;19.646;2023-05-15T12:06:00;99335.98;;;15.52;51.62
70338;BME280;57757;53.198;19.646;2023-05-15T12:08:33;99336.92;;;15.47;51.61
70338;BME280;57757;53.198;19.646;2023-05-15T12:11:02;99337.41;;;15.42;51.58
70338;BME280;57757;53.198;19.646;2023-05-15T12:13:31;99333.56;;;15.39;51.67
70338;BME280;57757;53.198;19.646;2023-05-15T12:16:01;99328.36;;;15.41;51.82
70338;BME280;57757;53.198;19.646;2023-05-15T12:18:30;99325.41;;;15.40;52.06
70338;BME280;57757;53.198;19.646;2023-05-15T12:20:59;99320.89;;;15.43;52.19
70338;BME280;57757;53.198;19.646;2023-05-15T12:23:27;99319.25;;;15.38;52.43
70338;BME280;57757;53.198;19.646;2023-05-15T12:26:01;99314.92;;;15.43;52.13
70338;BME280;57757;53.198;19.646;2023-05-15T12:28:32;99311.58;;;15.40;52.01
70338;BME280;57757;53.198;19.646;2023-05-15T12:31:00;99317.25;;;15.33;52.02
70338;BME280;57757;53.198;19.646;2023-05-15T12:33:29;99311.15;;;15.26;52.11
70338;BME280;57757;53.198;19.646;2023-05-15T12:35:57;99304.95;;;15.21;52.24
70338;BME280;57757;53.198;19.646;2023-05-15T12:38:28;99304.07;;;15.12;52.27
70338;BME280;57757;53.198;19.646;2023-05-15T12:40:57;99304.29;;;15.05;52.32
70338;BME280;57757;53.198;19.646;2023-05-15T12:43:25;99301.14;;;14.99;52.36
70338;BME280;57757;53.198;19.646;2023-05-15T12:45:57;99297.73;;;14.91;52.55
70338;BME280;57757;53.198;19.646;2023-05-15T12:48:29;99297.30;;;14.82;52.63
70338;BME280;57757;53.198;19.646;2023-05-15T12:51:06;99295.30;;;14.81;52.89
70338;BME280;57757;53.198;19.646;2023-05-15T12:53:34;99295.29;;;14.81;52.91
70338;BME280;57757;53.198;19.646;2023-05-15T12:56:02;99289.31;;;14.75;52.91
70338;BME280;57757;53.198;19.646;2023-05-15T12:58:32;99288.99;;;14.71;53.14
70338;BME280;57757;53.198;19.646;2023-05-15T13:01:00;99285.78;;;14.69;53.17
70338;BME280;57757;53.198;19.646;2023-05-15T13:03:31;99280.95;;;14.68;53.33
70338;BME280;57757;53.198;19.646;2023-05-15T13:06:06;99276.85;;;14.70;53.50
70338;BME280;57757;53.198;19.646;2023-05-15T13:08:40;99270.02;;;14.70;53.52
70338;BME280;57757;53.198;19.646;2023-05-15T13:11:12;99263.06;;;14.69;53.63
70338;BME280;57757;53.198;19.646;2023-05-15T13:13:43;99263.13;;;14.74;53.77
70338;BME280;57757;53.198;19.646;2023-05-15T13:16:22;99254.91;;;14.77;53.84
70338;BME280;57757;53.198;19.646;2023-05-15T13:18:51;99250.61;;;14.78;53.67
70338;BME280;57757;53.198;19.646;2023-05-15T13:21:19;99246.61;;;14.81;53.87
70338;BME280;57757;53.198;19.646;2023-05-15T13:23:47;99243.02;;;14.83;53.88
70338;BME280;57757;53.198;19.646;2023-05-15T13:26:15;99241.25;;;14.87;53.98
70338;BME280;57757;53.198;19.646;2023-05-15T13:28:45;99240.88;;;14.87;54.08
70338;BME280;57757;53.198;19.646;2023-05-15T13:31:29;99233.01;;;14.87;54.18
70338;BME280;57757;53.198;19.646;2023-05-15T13:33:57;99229.41;;;14.82;54.08